createdAt,value
2022-10-20T00:00:58.411Z,5.50
2022-10-20T00:06:18.716Z,4.40
2022-10-20T00:11:25.370Z,4.10
2022-10-20T00:16:34.638Z,4.30
2022-10-20T00:21:40.696Z,4.00
2022-10-20T00:26:46.465Z,3.60
2022-10-20T00:31:52.369Z,4.30
2022-10-20T00:36:58.270Z,4.10
2022-10-20T00:42:05.365Z,3.60
2022-10-20T00:47:14.412Z,4.20
2022-10-20T00:52:22.559Z,4.40
2022-10-20T00:57:29.755Z,3.80
2022-10-20T01:02:36.012Z,3.90
2022-10-20T01:07:42.294Z,4.40
2022-10-20T01:12:53.732Z,4.10
2022-10-20T01:18:08.745Z,4.90
2022-10-20T01:23:38.043Z,4.60
2022-10-20T01:28:51.880Z,4.20
2022-10-20T01:34:05.133Z,4.50
2022-10-20T01:39:16.690Z,5.30
2022-10-20T01:44:26.446Z,5.50
2022-10-20T01:49:32.422Z,4.60
2022-10-20T01:54:38.685Z,4.60
2022-10-20T02:00:01.464Z,4.70
2022-10-20T02:05:32.740Z,5.60
2022-10-20T02:10:45.021Z,5.30
2022-10-20T02:15:54.288Z,5.70
2022-10-20T02:21:03.600Z,5.90
2022-10-20T02:26:13.930Z,5.10
2022-10-20T02:31:20.426Z,5.70
2022-10-20T02:36:29.561Z,5.30
2022-10-20T02:41:35.906Z,5.80
2022-10-20T02:46:41.765Z,5.50
2022-10-20T02:51:47.712Z,5.30
2022-10-20T02:56:53.439Z,5.10
2022-10-20T03:01:59.262Z,4.80
2022-10-20T03:07:05.215Z,5.40
2022-10-20T03:12:11.155Z,5.30
2022-10-20T03:17:16.905Z,5.20
2022-10-20T03:22:22.849Z,4.80
2022-10-20T03:27:28.552Z,5.80
2022-10-20T03:32:35.015Z,5.70
2022-10-20T03:37:41.367Z,5.00
2022-10-20T03:42:47.321Z,5.40
2022-10-20T03:47:53.082Z,5.80
2022-10-20T03:52:58.919Z,6.70
2022-10-20T03:58:04.794Z,5.80
2022-10-20T04:03:10.639Z,5.60
2022-10-20T04:08:16.436Z,5.80
2022-10-20T04:13:22.240Z,6.60
2022-10-20T04:18:28.093Z,9.10
2022-10-20T04:23:33.887Z,7.60
2022-10-20T04:28:40.103Z,7.30
2022-10-20T04:33:46.155Z,7.60
2022-10-20T04:38:52.083Z,9.40
2022-10-20T04:43:57.946Z,30.60
2022-10-20T04:49:04.226Z,43.90
2022-10-20T04:54:10.066Z,23.80
2022-10-20T04:59:15.851Z,23.60
2022-10-20T05:04:22.002Z,12.20
2022-10-20T05:09:27.944Z,11.50
2022-10-20T05:14:33.812Z,9.00
2022-10-20T05:19:39.569Z,9.60
2022-10-20T05:24:45.595Z,8.70
2022-10-20T05:29:51.517Z,10.20
2022-10-20T05:34:57.298Z,9.00
2022-10-20T05:40:03.711Z,8.10
2022-10-20T05:45:11.212Z,8.10
2022-10-20T05:50:17.166Z,7.20
2022-10-20T05:55:23.021Z,8.10
2022-10-20T06:00:31.328Z,8.00
2022-10-20T06:05:37.168Z,7.20
2022-10-20T06:10:42.908Z,8.20
2022-10-20T06:15:49.234Z,8.20
2022-10-20T06:21:03.132Z,7.40
2022-10-20T06:26:11.075Z,7.60
2022-10-20T06:31:18.710Z,7.30
2022-10-20T06:36:25.231Z,8.10
2022-10-20T06:41:31.645Z,7.70
2022-10-20T06:46:38.587Z,8.70
2022-10-20T06:51:44.588Z,9.90
2022-10-20T06:56:50.701Z,8.70
2022-10-20T07:01:56.718Z,8.40
2022-10-20T07:07:02.509Z,8.30
2022-10-20T07:12:08.374Z,8.40
2022-10-20T07:17:14.407Z,7.30
2022-10-20T07:22:20.125Z,7.50
2022-10-20T07:27:25.864Z,6.60
2022-10-20T07:32:32.305Z,6.80
2022-10-20T07:37:38.724Z,5.90
2022-10-20T07:42:44.692Z,5.00
2022-10-20T07:47:51.021Z,5.10
2022-10-20T07:52:57.113Z,4.50
2022-10-20T07:58:02.905Z,4.60
2022-10-20T08:03:10.857Z,4.40
2022-10-20T08:08:16.823Z,4.40
2022-10-20T08:13:22.723Z,4.50
2022-10-20T08:18:30.215Z,4.60
2022-10-20T08:23:37.625Z,4.90
2022-10-20T08:28:43.337Z,5.50
2022-10-20T08:33:52.550Z,5.50
2022-10-20T08:39:03.563Z,5.90
2022-10-20T08:44:18.303Z,5.50
2022-10-20T08:49:29.346Z,5.40
2022-10-20T08:54:35.916Z,4.30
2022-10-20T08:59:41.664Z,3.90
2022-10-20T09:04:52.363Z,4.70
2022-10-20T09:10:07.799Z,4.60
2022-10-20T09:15:15.837Z,4.50
2022-10-20T09:20:25.821Z,6.60
2022-10-20T09:25:32.256Z,4.60
2022-10-20T09:30:38.659Z,3.90
2022-10-20T09:35:49.284Z,3.30
2022-10-20T09:46:07.611Z,2.30
2022-10-20T09:51:18.722Z,2.60
2022-10-20T09:56:33.410Z,2.70
2022-10-20T10:01:55.009Z,2.40
2022-10-20T10:07:01.148Z,2.20
2022-10-20T10:12:19.706Z,2.00
2022-10-20T10:17:34.108Z,5.00
2022-10-20T10:22:40.847Z,2.30
2022-10-20T10:28:00.732Z,2.40
2022-10-20T10:33:26.501Z,2.10
2022-10-20T10:38:32.456Z,1.80
2022-10-20T10:43:48.765Z,1.00
2022-10-20T10:49:24.109Z,1.60
2022-10-20T10:54:47.083Z,0.90
2022-10-20T10:59:54.841Z,0.80
2022-10-20T11:05:21.990Z,0.70
2022-10-20T11:10:36.785Z,0.70
2022-10-20T11:15:52.042Z,6.80
2022-10-20T11:21:08.860Z,1.50
2022-10-20T11:26:24.263Z,1.20
2022-10-20T11:31:34.621Z,1.40
2022-10-20T11:36:45.155Z,0.60
2022-10-20T11:41:56.881Z,0.40
2022-10-20T11:47:07.695Z,0.60
2022-10-20T11:52:49.498Z,0.70
2022-10-20T11:58:10.758Z,0.60
2022-10-20T12:09:00.223Z,0.70
2022-10-20T12:14:19.282Z,0.80
2022-10-20T12:19:26.837Z,1.00
2022-10-20T12:24:38.060Z,0.90
2022-10-20T12:30:02.165Z,0.80
2022-10-20T12:35:53.121Z,0.60
2022-10-20T12:41:01.244Z,0.70
2022-10-20T12:46:16.276Z,0.80
2022-10-20T12:51:33.923Z,1.10
2022-10-20T12:56:42.192Z,1.50
2022-10-20T13:02:29.418Z,1.40
2022-10-20T13:08:00.454Z,1.70
2022-10-20T13:13:41.348Z,1.20
2022-10-20T13:18:51.549Z,1.30
2022-10-20T13:24:03.428Z,1.50
2022-10-20T13:29:17.947Z,1.40
2022-10-20T13:34:30.393Z,1.80
2022-10-20T13:39:47.960Z,1.90
2022-10-20T13:45:03.863Z,1.80
2022-10-20T13:50:13.830Z,1.70
2022-10-20T13:55:22.775Z,2.00
2022-10-20T14:00:31.290Z,1.80
2022-10-20T14:05:40.351Z,2.20
2022-10-20T14:10:51.788Z,2.60
2022-10-20T14:15:59.164Z,2.20
2022-10-20T14:21:08.504Z,3.60
2022-10-20T14:26:16.204Z,7.90
2022-10-20T14:31:24.839Z,16.20
2022-10-20T14:36:31.464Z,16.00
2022-10-20T14:41:37.595Z,18.90
2022-10-20T14:46:47.953Z,19.20
2022-10-20T14:51:59.010Z,4.80
2022-10-20T14:57:37.808Z,7.10
2022-10-20T15:02:45.789Z,7.10
2022-10-20T15:07:51.950Z,5.90
2022-10-20T15:12:57.938Z,6.50
2022-10-20T15:18:16.408Z,9.70
2022-10-20T15:23:24.174Z,19.70
2022-10-20T15:28:47.017Z,20.50
2022-10-20T15:33:53.459Z,17.50
2022-10-20T15:38:59.834Z,20.20
2022-10-20T15:44:13.258Z,19.80
2022-10-20T15:49:19.424Z,17.20
2022-10-20T15:54:25.404Z,15.70
2022-10-20T15:59:31.384Z,13.10
2022-10-20T16:04:37.150Z,14.90
2022-10-20T16:09:43.221Z,24.20
2022-10-20T16:14:49.133Z,27.20
2022-10-20T16:19:54.954Z,17.70
2022-10-20T16:25:01.529Z,21.60
2022-10-20T16:30:09.797Z,18.70
2022-10-20T16:35:15.725Z,29.00
2022-10-20T16:40:21.732Z,31.10
2022-10-20T16:45:27.673Z,28.70
2022-10-20T16:50:33.883Z,32.00
2022-10-20T16:55:40.080Z,30.70
2022-10-20T17:00:45.887Z,28.00
2022-10-20T17:05:58.101Z,28.10
2022-10-20T17:11:06.605Z,30.00
2022-10-20T17:16:14.938Z,29.30
2022-10-20T17:21:21.178Z,58.30
2022-10-20T17:26:32.851Z,47.20
2022-10-20T17:31:39.130Z,43.30
2022-10-20T17:36:44.960Z,40.80
2022-10-20T17:41:50.897Z,34.00
2022-10-20T17:46:58.732Z,34.50
2022-10-20T17:52:04.842Z,33.30
2022-10-20T17:57:10.832Z,34.50
2022-10-20T18:02:16.787Z,32.60
2022-10-20T18:07:22.686Z,31.70
2022-10-20T18:12:28.495Z,36.20
2022-10-20T18:17:34.748Z,39.90
2022-10-20T18:22:40.675Z,43.80
2022-10-20T18:27:46.559Z,44.20
2022-10-20T18:32:52.632Z,44.90
2022-10-20T18:37:58.306Z,44.40
2022-10-20T18:43:04.172Z,64.20
2022-10-20T18:48:10.000Z,49.80
2022-10-20T18:53:15.740Z,44.40
2022-10-20T18:58:21.460Z,40.60
2022-10-20T19:03:31.150Z,43.00
2022-10-20T19:08:38.632Z,45.70
2022-10-20T19:13:44.457Z,46.50
2022-10-20T19:18:52.178Z,45.20
2022-10-20T19:24:01.264Z,42.00
2022-10-20T19:29:09.677Z,41.30
2022-10-20T19:34:19.268Z,46.40
2022-10-20T19:39:27.538Z,64.90
2022-10-20T19:44:34.219Z,65.20
2022-10-20T19:49:40.962Z,56.30
2022-10-20T19:54:46.706Z,55.10
2022-10-20T19:59:52.897Z,53.30
2022-10-20T20:04:58.668Z,48.00
2022-10-20T20:10:05.872Z,51.10
2022-10-20T20:15:11.676Z,46.40
2022-10-20T20:20:17.738Z,42.90
2022-10-20T20:25:23.539Z,42.00
2022-10-20T20:30:29.251Z,42.40
2022-10-20T20:35:35.171Z,40.10
2022-10-20T20:40:46.456Z,38.00
2022-10-20T20:45:52.311Z,35.80
2022-10-20T20:51:00.520Z,36.80
2022-10-20T20:56:08.665Z,36.50
2022-10-20T21:01:16.829Z,34.20
2022-10-20T21:06:28.771Z,31.90
2022-10-20T21:11:39.888Z,28.90
2022-10-20T21:16:46.185Z,29.40
2022-10-20T21:21:57.209Z,30.90
2022-10-20T21:27:03.578Z,34.00
2022-10-20T21:32:09.254Z,30.50
2022-10-20T21:37:15.015Z,29.80
2022-10-20T21:42:21.016Z,34.80
2022-10-20T21:47:26.824Z,36.10
2022-10-20T21:52:32.662Z,36.80
2022-10-20T21:57:38.703Z,33.50
2022-10-20T22:02:47.690Z,34.50
2022-10-20T22:07:53.471Z,33.00
2022-10-20T22:12:59.237Z,34.50
2022-10-20T22:18:05.678Z,39.50
2022-10-20T22:23:11.487Z,33.50
2022-10-20T22:28:17.367Z,31.40
2022-10-20T22:33:23.570Z,32.50
2022-10-20T22:38:29.309Z,36.40
2022-10-20T22:43:35.075Z,34.90
2022-10-20T22:48:41.010Z,29.30
2022-10-20T22:53:46.756Z,29.90
2022-10-20T22:58:54.001Z,30.40
2022-10-20T23:03:59.819Z,34.10
2022-10-20T23:09:06.133Z,31.80
2022-10-20T23:14:12.985Z,26.90
2022-10-20T23:19:18.835Z,29.40
2022-10-20T23:24:24.667Z,27.90
2022-10-20T23:29:30.973Z,30.20
2022-10-20T23:34:37.685Z,28.10
2022-10-20T23:39:43.451Z,24.80
2022-10-20T23:44:49.183Z,27.40
2022-10-20T23:49:55.119Z,29.50
2022-10-20T23:55:00.842Z,30.90
